sensor_id;sensor_type;location;lat;lon;timestamp;pressure;altitude;pressure_sealevel;temperature;humidity
13029;BME280;6581;42.662;23.402;2022-09-14T00:01:19;95279.66;;;13.46;80.45
13029;BME280;6581;42.662;23.402;2022-09-14T00:03:51;95289.53;;;13.46;80.97
13029;BME280;6581;42.662;23.402;2022-09-14T00:06:20;95296.38;;;13.43;80.32
13029;BME280;6581;42.662;23.402;2022-09-14T00:08:49;95288.38;;;13.36;79.59
13029;BME280;6581;42.662;23.402;2022-09-14T00:11:17;95289.13;;;13.37;80.32
13029;BME280;6581;42.662;23.402;2022-09-14T00:13:46;95284.94;;;13.36;80.77
13029;BME280;6581;42.662;23.402;2022-09-14T00:16:15;95282.66;;;13.34;81.37
13029;BME280;6581;42.662;23.402;2022-09-14T00:18:43;95279.63;;;13.36;80.76
13029;BME280;6581;42.662;23.402;2022-09-14T00:21:11;95279.97;;;13.27;81.42
13029;BME280;6581;42.662;23.402;2022-09-14T00:23:41;95289.84;;;13.26;82.52
13029;BME280;6581;42.662;23.402;2022-09-14T00:26:09;95290.25;;;13.28;82.00
13029;BME280;6581;42.662;23.402;2022-09-14T00:28:38;95289.84;;;13.23;82.07
13029;BME280;6581;42.662;23.402;2022-09-14T00:31:05;95282.22;;;13.21;81.93
13029;BME280;6581;42.662;23.402;2022-09-14T00:33:33;95288.31;;;13.22;81.99
13029;BME280;6581;42.662;23.402;2022-09-14T00:36:05;95284.13;;;13.21;81.67
13029;BME280;6581;42.662;23.402;2022-09-14T00:38:34;95281.81;;;13.16;81.74
13029;BME280;6581;42.662;23.402;2022-09-14T00:41:05;95279.13;;;13.12;82.08
13029;BME280;6581;42.662;23.402;2022-09-14T00:43:32;95287.47;;;13.11;82.02
13029;BME280;6581;42.662;23.402;2022-09-14T00:46:16;95286.72;;;13.10;81.63
13029;BME280;6581;42.662;23.402;2022-09-14T00:48:43;95287.84;;;13.09;81.72
13029;BME280;6581;42.662;23.402;2022-09-14T00:51:11;95297.00;;;13.12;82.26
13029;BME280;6581;42.662;23.402;2022-09-14T00:53:39;95295.41;;;13.07;82.11
13029;BME280;6581;42.662;23.402;2022-09-14T00:56:08;95297.72;;;13.09;82.10
13029;BME280;6581;42.662;23.402;2022-09-14T00:58:36;95301.13;;;13.06;83.14
13029;BME280;6581;42.662;23.402;2022-09-14T01:01:04;95298.47;;;13.09;82.24
13029;BME280;6581;42.662;23.402;2022-09-14T01:03:32;95303.78;;;13.06;81.93
13029;BME280;6581;42.662;23.402;2022-09-14T01:06:04;95294.63;;;13.00;82.86
13029;BME280;6581;42.662;23.402;2022-09-14T01:08:52;95303.31;;;12.93;83.44
13029;BME280;6581;42.662;23.402;2022-09-14T01:11:42;95300.28;;;12.91;83.93
13029;BME280;6581;42.662;23.402;2022-09-14T01:14:17;95302.94;;;12.91;84.00
13029;BME280;6581;42.662;23.402;2022-09-14T01:16:52;95297.63;;;12.95;83.76
13029;BME280;6581;42.662;23.402;2022-09-14T01:19:26;95305.53;;;12.80;84.00
13029;BME280;6581;42.662;23.402;2022-09-14T01:22:07;95310.81;;;12.77;84.56
13029;BME280;6581;42.662;23.402;2022-09-14T01:24:42;95301.72;;;12.78;84.66
13029;BME280;6581;42.662;23.402;2022-09-14T01:27:24;95302.84;;;12.73;85.10
13029;BME280;6581;42.662;23.402;2022-09-14T01:30:01;95302.78;;;12.66;86.08
13029;BME280;6581;42.662;23.402;2022-09-14T01:32:32;95295.56;;;12.67;86.29
13029;BME280;6581;42.662;23.402;2022-09-14T01:35:04;95303.91;;;12.65;86.26
13029;BME280;6581;42.662;23.402;2022-09-14T01:37:37;95305.00;;;12.61;86.62
13029;BME280;6581;42.662;23.402;2022-09-14T01:40:10;95298.56;;;12.58;87.30
13029;BME280;6581;42.662;23.402;2022-09-14T01:42:45;95294.00;;;12.59;87.29
13029;BME280;6581;42.662;23.402;2022-09-14T01:45:16;95289.81;;;12.58;87.51
13029;BME280;6581;42.662;23.402;2022-09-14T01:48:11;95298.13;;;12.53;87.69
13029;BME280;6581;42.662;23.402;2022-09-14T01:50:43;95290.13;;;12.46;88.15
13029;BME280;6581;42.662;23.402;2022-09-14T01:53:15;95300.41;;;12.54;87.85
13029;BME280;6581;42.662;23.402;2022-09-14T01:55:45;95303.06;;;12.54;87.50
13029;BME280;6581;42.662;23.402;2022-09-14T01:58:20;95295.13;;;12.61;87.39
13029;BME280;6581;42.662;23.402;2022-09-14T02:00:52;95303.06;;;12.54;87.19
13029;BME280;6581;42.662;23.402;2022-09-14T02:03:23;95296.97;;;12.50;86.92
13029;BME280;6581;42.662;23.402;2022-09-14T02:05:57;95299.25;;;12.52;87.52
13029;BME280;6581;42.662;23.402;2022-09-14T02:08:27;95296.22;;;12.53;87.54
13029;BME280;6581;42.662;23.402;2022-09-14T02:10:55;95298.13;;;12.56;87.40
13029;BME280;6581;42.662;23.402;2022-09-14T02:13:25;95290.56;;;12.58;87.23
13029;BME280;6581;42.662;23.402;2022-09-14T02:15:53;95295.88;;;12.58;87.32
13029;BME280;6581;42.662;23.402;2022-09-14T02:18:20;95293.22;;;12.58;87.21
13029;BME280;6581;42.662;23.402;2022-09-14T02:20:52;95305.44;;;12.66;86.53
13029;BME280;6581;42.662;23.402;2022-09-14T02:23:21;95300.78;;;12.56;86.94
13029;BME280;6581;42.662;23.402;2022-09-14T02:25:49;95302.66;;;12.52;86.19
13029;BME280;6581;42.662;23.402;2022-09-14T02:28:16;95300.78;;;12.53;85.73
13029;BME280;6581;42.662;23.402;2022-09-14T02:30:53;95296.59;;;12.52;86.31
13029;BME280;6581;42.662;23.402;2022-09-14T02:33:28;95294.69;;;12.49;87.05
13029;BME280;6581;42.662;23.402;2022-09-14T02:36:04;95293.91;;;12.48;87.52
13029;BME280;6581;42.662;23.402;2022-09-14T02:38:38;95292.00;;;12.45;87.47
13029;BME280;6581;42.662;23.402;2022-09-14T02:41:10;95296.13;;;12.39;86.99
13029;BME280;6581;42.662;23.402;2022-09-14T02:43:44;95295.34;;;12.38;86.84
13029;BME280;6581;42.662;23.402;2022-09-14T02:46:23;95299.53;;;12.36;87.36
13029;BME280;6581;42.662;23.402;2022-09-14T02:48:58;95300.59;;;12.28;87.35
13029;BME280;6581;42.662;23.402;2022-09-14T02:51:30;95305.06;;;12.20;88.26
13029;BME280;6581;42.662;23.402;2022-09-14T02:54:02;95300.53;;;12.21;88.65
13029;BME280;6581;42.662;23.402;2022-09-14T02:56:32;95308.41;;;12.10;88.12
13029;BME280;6581;42.662;23.402;2022-09-14T02:59:00;95310.56;;;11.97;88.70
13029;BME280;6581;42.662;23.402;2022-09-14T03:01:29;95307.53;;;11.95;88.87
13029;BME280;6581;42.662;23.402;2022-09-14T03:03:56;95299.75;;;11.76;89.29
13029;BME280;6581;42.662;23.402;2022-09-14T03:06:23;95311.13;;;11.77;89.63
13029;BME280;6581;42.662;23.402;2022-09-14T03:08:50;95308.34;;;11.70;89.27
13029;BME280;6581;42.662;23.402;2022-09-14T03:11:18;95315.03;;;11.56;90.42
13029;BME280;6581;42.662;23.402;2022-09-14T03:13:45;95310.78;;;11.48;91.03
13029;BME280;6581;42.662;23.402;2022-09-14T03:16:15;95308.19;;;11.55;91.31
13029;BME280;6581;42.662;23.402;2022-09-14T03:18:44;95310.44;;;11.50;91.52
13029;BME280;6581;42.662;23.402;2022-09-14T03:21:15;95305.47;;;11.48;91.67
13029;BME280;6581;42.662;23.402;2022-09-14T03:23:44;95307.03;;;11.53;91.85
13029;BME280;6581;42.662;23.402;2022-09-14T03:26:13;95304.69;;;11.44;92.56
13029;BME280;6581;42.662;23.402;2022-09-14T03:28:41;95308.13;;;11.48;92.39
13029;BME280;6581;42.662;23.402;2022-09-14T03:31:10;95311.91;;;11.47;92.31
13029;BME280;6581;42.662;23.402;2022-09-14T03:33:38;95316.84;;;11.49;92.79
13029;BME280;6581;42.662;23.402;2022-09-14T03:36:12;95305.06;;;11.46;92.04
13029;BME280;6581;42.662;23.402;2022-09-14T03:38:42;95309.94;;;11.41;92.30
13029;BME280;6581;42.662;23.402;2022-09-14T03:41:10;95307.97;;;11.34;92.12
13029;BME280;6581;42.662;23.402;2022-09-14T03:43:38;95306.38;;;11.30;92.70
13029;BME280;6581;42.662;23.402;2022-09-14T03:46:06;95303.75;;;11.30;92.59
13029;BME280;6581;42.662;23.402;2022-09-14T03:48:34;95302.97;;;11.29;92.99
13029;BME280;6581;42.662;23.402;2022-09-14T03:51:02;95305.13;;;11.20;92.85
13029;BME280;6581;42.662;23.402;2022-09-14T03:53:31;95308.25;;;11.26;93.46
13029;BME280;6581;42.662;23.402;2022-09-14T03:55:58;95312.75;;;11.22;93.24
13029;BME280;6581;42.662;23.402;2022-09-14T03:58:30;95318.03;;;11.22;93.33
13029;BME280;6581;42.662;23.402;2022-09-14T04:01:03;95322.16;;;11.19;93.83
13029;BME280;6581;42.662;23.402;2022-09-14T04:03:31;95320.28;;;11.20;94.29
13029;BME280;6581;42.662;23.402;2022-09-14T04:05:58;95314.50;;;11.14;94.07
13029;BME280;6581;42.662;23.402;2022-09-14T04:08:26;95321.38;;;11.19;94.09
13029;BME280;6581;42.662;23.402;2022-09-14T04:10:55;95317.59;;;11.16;94.44
13029;BME280;6581;42.662;23.402;2022-09-14T04:13:23;95313.81;;;11.17;93.36
13029;BME280;6581;42.662;23.402;2022-09-14T04:15:57;95311.50;;;11.16;94.05
13029;BME280;6581;42.662;23.402;2022-09-14T04:18:25;95318.00;;;11.18;94.73
13029;BME280;6581;42.662;23.402;2022-09-14T04:20:56;95313.50;;;11.22;93.97
13029;BME280;6581;42.662;23.402;2022-09-14T04:23:24;95316.81;;;11.16;93.67
13029;BME280;6581;42.662;23.402;2022-09-14T04:25:53;95315.34;;;11.18;93.77
13029;BME280;6581;42.662;23.402;2022-09-14T04:28:21;95312.19;;;11.09;94.29
13029;BME280;6581;42.662;23.402;2022-09-14T04:30:56;95317.59;;;11.16;94.39
13029;BME280;6581;42.662;23.402;2022-09-14T04:33:25;95310.78;;;11.19;94.55
13029;BME280;6581;42.662;23.402;2022-09-14T04:35:57;95312.44;;;11.27;93.89
13029;BME280;6581;42.662;23.402;2022-09-14T04:38:26;95307.53;;;11.32;93.88
13029;BME280;6581;42.662;23.402;2022-09-14T04:40:55;95314.34;;;11.30;93.76
13029;BME280;6581;42.662;23.402;2022-09-14T04:43:23;95319.69;;;11.33;93.46
13029;BME280;6581;42.662;23.402;2022-09-14T04:45:51;95328.16;;;11.46;92.62
13029;BME280;6581;42.662;23.402;2022-09-14T04:48:18;95327.50;;;11.52;92.42
13029;BME280;6581;42.662;23.402;2022-09-14T04:50:45;95327.50;;;11.52;92.92
13029;BME280;6581;42.662;23.402;2022-09-14T04:53:13;95315.34;;;11.51;93.43
13029;BME280;6581;42.662;23.402;2022-09-14T04:55:40;95324.84;;;11.52;94.39
13029;BME280;6581;42.662;23.402;2022-09-14T04:58:09;95330.91;;;11.53;95.22
13029;BME280;6581;42.662;23.402;2022-09-14T05:00:36;95333.16;;;11.51;95.69
13029;BME280;6581;42.662;23.402;2022-09-14T05:03:03;95332.38;;;11.50;96.11
13029;BME280;6581;42.662;23.402;2022-09-14T05:05:34;95344.22;;;11.56;95.99
13029;BME280;6581;42.662;23.402;2022-09-14T05:08:03;95343.78;;;11.51;96.17
13029;BME280;6581;42.662;23.402;2022-09-14T05:10:30;95350.31;;;11.61;95.58
13029;BME280;6581;42.662;23.402;2022-09-14T05:12:57;95347.19;;;11.51;95.90
13029;BME280;6581;42.662;23.402;2022-09-14T05:15:26;95354.00;;;11.49;95.79
13029;BME280;6581;42.662;23.402;2022-09-14T05:17:53;95351.72;;;11.51;96.11
13029;BME280;6581;42.662;23.402;2022-09-14T05:20:20;95347.75;;;11.68;95.03
13029;BME280;6581;42.662;23.402;2022-09-14T05:22:48;95349.28;;;11.69;95.31
13029;BME280;6581;42.662;23.402;2022-09-14T05:25:16;95358.81;;;11.73;94.03
13029;BME280;6581;42.662;23.402;2022-09-14T05:27:43;95350.59;;;11.82;94.30
13029;BME280;6581;42.662;23.402;2022-09-14T05:30:11;95355.94;;;11.85;93.88
13029;BME280;6581;42.662;23.402;2022-09-14T05:32:39;95361.66;;;11.87;93.55
13029;BME280;6581;42.662;23.402;2022-09-14T05:35:07;95364.06;;;11.99;93.86
13029;BME280;6581;42.662;23.402;2022-09-14T05:37:34;95371.72;;;12.08;93.30
13029;BME280;6581;42.662;23.402;2022-09-14T05:40:02;95368.78;;;12.17;93.28
13029;BME280;6581;42.662;23.402;2022-09-14T05:42:30;95364.25;;;12.21;92.62
13029;BME280;6581;42.662;23.402;2022-09-14T05:44:58;95376.09;;;12.27;92.16
13029;BME280;6581;42.662;23.402;2022-09-14T05:47:28;95371.59;;;12.34;92.02
13029;BME280;6581;42.662;23.402;2022-09-14T05:49:57;95372.09;;;12.47;91.57
13029;BME280;6581;42.662;23.402;2022-09-14T05:52:24;95367.63;;;12.55;90.77
13029;BME280;6581;42.662;23.402;2022-09-14T05:55:15;95379.03;;;12.59;91.30
13029;BME280;6581;42.662;23.402;2022-09-14T05:57:48;95376.50;;;12.73;90.73
13029;BME280;6581;42.662;23.402;2022-09-14T06:00:20;95379.19;;;12.80;90.12
13029;BME280;6581;42.662;23.402;2022-09-14T06:02:49;95370.94;;;12.92;89.71
13029;BME280;6581;42.662;23.402;2022-09-14T06:05:23;95374.75;;;12.98;89.94
13029;BME280;6581;42.662;23.402;2022-09-14T06:07:52;95383.19;;;13.07;89.98
13029;BME280;6581;42.662;23.402;2022-09-14T06:10:25;95385.59;;;13.23;88.62
13029;BME280;6581;42.662;23.402;2022-09-14T06:12:58;95386.38;;;13.30;88.57
13029;BME280;6581;42.662;23.402;2022-09-14T06:15:26;95373.50;;;13.40;88.21
13029;BME280;6581;42.662;23.402;2022-09-14T06:17:53;95381.94;;;13.49;87.85
13029;BME280;6581;42.662;23.402;2022-09-14T06:20:20;95378.19;;;13.60;87.66
13029;BME280;6581;42.662;23.402;2022-09-14T06:22:49;95385.47;;;13.77;87.34
13029;BME280;6581;42.662;23.402;2022-09-14T06:25:16;95373.72;;;13.89;86.69
13029;BME280;6581;42.662;23.402;2022-09-14T06:27:43;95372.63;;;14.01;86.52
13029;BME280;6581;42.662;23.402;2022-09-14T06:30:11;95371.91;;;14.11;85.49
13029;BME280;6581;42.662;23.402;2022-09-14T06:32:39;95373.44;;;14.26;84.82
13029;BME280;6581;42.662;23.402;2022-09-14T06:35:07;95371.53;;;14.23;84.61
13029;BME280;6581;42.662;23.402;2022-09-14T06:37:35;95370.44;;;14.38;81.24
13029;BME280;6581;42.662;23.402;2022-09-14T06:40:05;95372.75;;;14.47;79.33
13029;BME280;6581;42.662;23.402;2022-09-14T06:42:33;95368.16;;;14.54;79.33
13029;BME280;6581;42.662;23.402;2022-09-14T06:45:01;95358.25;;;14.62;78.72
13029;BME280;6581;42.662;23.402;2022-09-14T06:47:31;95364.00;;;14.78;79.51
13029;BME280;6581;42.662;23.402;2022-09-14T06:49:58;95360.56;;;14.85;79.62
13029;BME280;6581;42.662;23.402;2022-09-14T06:52:25;95368.94;;;14.97;78.33
13029;BME280;6581;42.662;23.402;2022-09-14T06:54:52;95370.84;;;14.97;77.83
13029;BME280;6581;42.662;23.402;2022-09-14T06:57:20;95367.75;;;15.13;77.62
13029;BME280;6581;42.662;23.402;2022-09-14T06:59:48;95375.38;;;15.18;77.84
13029;BME280;6581;42.662;23.402;2022-09-14T07:02:15;95376.88;;;15.33;76.69
13029;BME280;6581;42.662;23.402;2022-09-14T07:04:42;95374.19;;;15.36;76.16
13029;BME280;6581;42.662;23.402;2022-09-14T07:07:09;95370.78;;;15.29;75.05
13029;BME280;6581;42.662;23.402;2022-09-14T07:09:36;95378.72;;;15.50;74.08
13029;BME280;6581;42.662;23.402;2022-09-14T07:12:04;95358.91;;;15.47;74.28
13029;BME280;6581;42.662;23.402;2022-09-14T07:14:32;95368.41;;;15.66;73.90
13029;BME280;6581;42.662;23.402;2022-09-14T07:17:01;95359.97;;;15.78;72.80
13029;BME280;6581;42.662;23.402;2022-09-14T07:19:28;95361.84;;;15.85;72.47
13029;BME280;6581;42.662;23.402;2022-09-14T07:21:56;95364.56;;;15.71;72.32
13029;BME280;6581;42.662;23.402;2022-09-14T07:24:48;95359.91;;;15.89;72.63
13029;BME280;6581;42.662;23.402;2022-09-14T07:27:15;95362.91;;;16.02;72.10
13029;BME280;6581;42.662;23.402;2022-09-14T07:29:43;95354.03;;;16.19;72.35
13029;BME280;6581;42.662;23.402;2022-09-14T07:32:11;95361.19;;;16.36;71.54
13029;BME280;6581;42.662;23.402;2022-09-14T07:34:38;95360.69;;;16.52;71.09
13029;BME280;6581;42.662;23.402;2022-09-14T07:37:05;95358.75;;;16.59;70.74
13029;BME280;6581;42.662;23.402;2022-09-14T07:39:32;95353.31;;;16.70;71.43
13029;BME280;6581;42.662;23.402;2022-09-14T07:41:59;95346.41;;;16.76;70.79
13029;BME280;6581;42.662;23.402;2022-09-14T07:44:26;95351.22;;;16.92;70.25
13029;BME280;6581;42.662;23.402;2022-09-14T07:46:56;95344.59;;;17.07;70.94
13029;BME280;6581;42.662;23.402;2022-09-14T07:49:23;95355.72;;;17.02;69.33
13029;BME280;6581;42.662;23.402;2022-09-14T07:51:51;95357.97;;;17.07;68.48
13029;BME280;6581;42.662;23.402;2022-09-14T07:54:19;95359.31;;;17.25;68.03
13029;BME280;6581;42.662;23.402;2022-09-14T07:56:46;95355.72;;;17.39;67.49
13029;BME280;6581;42.662;23.402;2022-09-14T07:59:15;95354.06;;;17.52;67.14
13029;BME280;6581;42.662;23.402;2022-09-14T08:01:43;95357.03;;;17.61;66.61
13029;BME280;6581;42.662;23.402;2022-09-14T08:04:12;95362.34;;;17.65;66.11
13029;BME280;6581;42.662;23.402;2022-09-14T08:06:39;95357.25;;;17.74;65.44
13029;BME280;6581;42.662;23.402;2022-09-14T08:09:07;95358.28;;;17.84;64.92
13029;BME280;6581;42.662;23.402;2022-09-14T08:11:34;95356.59;;;17.97;64.15
13029;BME280;6581;42.662;23.402;2022-09-14T08:14:26;95360.22;;;18.13;64.16
13029;BME280;6581;42.662;23.402;2022-09-14T08:16:54;95361.38;;;18.12;63.79
13029;BME280;6581;42.662;23.402;2022-09-14T08:19:22;95353.16;;;18.27;63.63
13029;BME280;6581;42.662;23.402;2022-09-14T08:21:49;95352.81;;;18.48;63.41
13029;BME280;6581;42.662;23.402;2022-09-14T08:24:20;95352.53;;;18.69;62.22
13029;BME280;6581;42.662;23.402;2022-09-14T08:27:11;95337.69;;;18.88;63.15
13029;BME280;6581;42.662;23.402;2022-09-14T08:29:38;95327.72;;;19.08;62.43
13029;BME280;6581;42.662;23.402;2022-09-14T08:32:05;95330.16;;;19.22;61.23
13029;BME280;6581;42.662;23.402;2022-09-14T08:34:33;95340.56;;;19.40;60.74
13029;BME280;6581;42.662;23.402;2022-09-14T08:37:01;95339.72;;;19.46;59.38
13029;BME280;6581;42.662;23.402;2022-09-14T08:39:28;95344.94;;;19.54;59.68
13029;BME280;6581;42.662;23.402;2022-09-14T08:41:57;95333.72;;;19.59;59.92
13029;BME280;6581;42.662;23.402;2022-09-14T08:44:52;95337.66;;;19.74;59.72
13029;BME280;6581;42.662;23.402;2022-09-14T08:47:25;95345.63;;;19.77;58.79
13029;BME280;6581;42.662;23.402;2022-09-14T08:50:00;95343.16;;;19.67;59.14
13029;BME280;6581;42.662;23.402;2022-09-14T08:52:33;95336.16;;;19.89;58.79
13029;BME280;6581;42.662;23.402;2022-09-14T08:55:16;95331.34;;;19.80;57.13
13029;BME280;6581;42.662;23.402;2022-09-14T08:57:47;95333.00;;;19.94;57.30
13029;BME280;6581;42.662;23.402;2022-09-14T09:00:20;95331.88;;;20.11;57.05
13029;BME280;6581;42.662;23.402;2022-09-14T09:03:14;95324.75;;;20.21;57.78
13029;BME280;6581;42.662;23.402;2022-09-14T09:06:16;95323.91;;;19.88;57.10
13029;BME280;6581;42.662;23.402;2022-09-14T09:08:54;95323.69;;;19.99;57.39
13029;BME280;6581;42.662;23.402;2022-09-14T09:11:25;95322.47;;;20.19;57.32
13029;BME280;6581;42.662;23.402;2022-09-14T09:13:54;95319.41;;;20.37;57.63
13029;BME280;6581;42.662;23.402;2022-09-14T09:16:23;95315.97;;;20.53;56.97
13029;BME280;6581;42.662;23.402;2022-09-14T09:18:55;95315.81;;;20.76;57.35
13029;BME280;6581;42.662;23.402;2022-09-14T09:21:29;95312.31;;;20.92;56.11
13029;BME280;6581;42.662;23.402;2022-09-14T09:24:07;95308.09;;;21.07;55.95
13029;BME280;6581;42.662;23.402;2022-09-14T09:26:42;95306.91;;;21.24;55.66
13029;BME280;6581;42.662;23.402;2022-09-14T09:29:10;95311.28;;;21.18;55.50
13029;BME280;6581;42.662;23.402;2022-09-14T09:31:56;95312.00;;;21.35;54.85
13029;BME280;6581;42.662;23.402;2022-09-14T09:34:50;95311.50;;;21.40;53.92
13029;BME280;6581;42.662;23.402;2022-09-14T09:37:51;95301.31;;;21.31;53.92
13029;BME280;6581;42.662;23.402;2022-09-14T09:40:30;95296.22;;;21.49;53.77
13029;BME280;6581;42.662;23.402;2022-09-14T09:43:05;95296.22;;;21.49;54.45
13029;BME280;6581;42.662;23.402;2022-09-14T09:45:47;95301.41;;;21.69;54.33
13029;BME280;6581;42.662;23.402;2022-09-14T09:48:19;95306.28;;;21.74;53.08
13029;BME280;6581;42.662;23.402;2022-09-14T09:50:50;95300.25;;;21.70;52.66
13029;BME280;6581;42.662;23.402;2022-09-14T09:53:23;95297.69;;;21.79;52.84
13029;BME280;6581;42.662;23.402;2022-09-14T09:55:51;95294.47;;;21.97;53.53
13029;BME280;6581;42.662;23.402;2022-09-14T09:58:28;95289.19;;;22.06;52.57
13029;BME280;6581;42.662;23.402;2022-09-14T10:00:57;95287.25;;;22.06;50.90
13029;BME280;6581;42.662;23.402;2022-09-14T10:03:30;95284.13;;;22.21;51.04
13029;BME280;6581;42.662;23.402;2022-09-14T10:06:00;95275.50;;;22.26;50.46
13029;BME280;6581;42.662;23.402;2022-09-14T10:08:30;95279.59;;;22.30;49.87
13029;BME280;6581;42.662;23.402;2022-09-14T10:11:01;95276.03;;;22.21;49.92
13029;BME280;6581;42.662;23.402;2022-09-14T10:13:31;95271.16;;;22.28;49.84
13029;BME280;6581;42.662;23.402;2022-09-14T10:16:14;95273.34;;;22.33;50.72
13029;BME280;6581;42.662;23.402;2022-09-14T10:18:43;95273.41;;;22.55;51.54
13029;BME280;6581;42.662;23.402;2022-09-14T10:21:11;95265.63;;;22.70;49.75
13029;BME280;6581;42.662;23.402;2022-09-14T10:23:42;95262.16;;;22.69;50.08
13029;BME280;6581;42.662;23.402;2022-09-14T10:26:22;95253.41;;;22.65;48.75
13029;BME280;6581;42.662;23.402;2022-09-14T10:28:50;95245.19;;;22.81;49.09
13029;BME280;6581;42.662;23.402;2022-09-14T10:31:26;95253.13;;;22.97;48.48
13029;BME280;6581;42.662;23.402;2022-09-14T10:33:57;95250.13;;;22.95;48.35
13029;BME280;6581;42.662;23.402;2022-09-14T10:36:28;95250.44;;;23.19;47.82
13029;BME280;6581;42.662;23.402;2022-09-14T10:39:02;95264.75;;;23.07;46.84
13029;BME280;6581;42.662;23.402;2022-09-14T10:41:37;95242.53;;;23.25;46.59
13029;BME280;6581;42.662;23.402;2022-09-14T10:44:22;95240.81;;;23.40;46.72
13029;BME280;6581;42.662;23.402;2022-09-14T10:47:03;95233.97;;;23.26;47.61
13029;BME280;6581;42.662;23.402;2022-09-14T10:49:44;95233.78;;;23.42;46.41
13029;BME280;6581;42.662;23.402;2022-09-14T10:52:20;95240.28;;;23.45;45.30
13029;BME280;6581;42.662;23.402;2022-09-14T10:55:05;95241.91;;;23.64;45.66
13029;BME280;6581;42.662;23.402;2022-09-14T10:57:43;95232.97;;;23.85;45.31
13029;BME280;6581;42.662;23.402;2022-09-14T11:00:18;95225.09;;;24.00;44.07
13029;BME280;6581;42.662;23.402;2022-09-14T11:03:07;95228.50;;;23.92;42.50
13029;BME280;6581;42.662;23.402;2022-09-14T11:05:43;95229.38;;;24.19;42.17
13029;BME280;6581;42.662;23.402;2022-09-14T11:08:19;95222.34;;;24.31;42.74
13029;BME280;6581;42.662;23.402;2022-09-14T11:11:02;95224.75;;;24.38;40.16
13029;BME280;6581;42.662;23.402;2022-09-14T11:13:42;95227.78;;;24.40;39.82
13029;BME280;6581;42.662;23.402;2022-09-14T11:16:24;95224.03;;;24.47;38.77
13029;BME280;6581;42.662;23.402;2022-09-14T11:18:59;95222.22;;;24.53;39.08
13029;BME280;6581;42.662;23.402;2022-09-14T11:21:36;95215.03;;;24.68;39.24
13029;BME280;6581;42.662;23.402;2022-09-14T11:24:14;95214.72;;;24.84;39.24
13029;BME280;6581;42.662;23.402;2022-09-14T11:26:49;95211.91;;;24.97;38.50
13029;BME280;6581;42.662;23.402;2022-09-14T11:29:48;95207.09;;;24.92;37.92
13029;BME280;6581;42.662;23.402;2022-09-14T11:32:19;95214.03;;;25.11;37.74
13029;BME280;6581;42.662;23.402;2022-09-14T11:34:52;95217.78;;;25.13;36.62
13029;BME280;6581;42.662;23.402;2022-09-14T11:37:28;95200.59;;;25.16;37.38
13029;BME280;6581;42.662;23.402;2022-09-14T11:40:04;95186.03;;;24.96;37.99
13029;BME280;6581;42.662;23.402;2022-09-14T11:42:37;95182.53;;;25.04;35.66
13029;BME280;6581;42.662;23.402;2022-09-14T11:45:17;95177.69;;;25.27;36.05
13029;BME280;6581;42.662;23.402;2022-09-14T11:47:52;95185.34;;;25.46;35.59
13029;BME280;6581;42.662;23.402;2022-09-14T11:50:23;95176.28;;;25.58;36.30
13029;BME280;6581;42.662;23.402;2022-09-14T11:52:59;95174.13;;;25.72;35.59
13029;BME280;6581;42.662;23.402;2022-09-14T11:55:53;95178.31;;;25.82;36.23
13029;BME280;6581;42.662;23.402;2022-09-14T11:58:24;95179.78;;;25.92;33.07
13029;BME280;6581;42.662;23.402;2022-09-14T12:01:26;95185.03;;;25.95;31.15
13029;BME280;6581;42.662;23.402;2022-09-14T12:04:11;95181.25;;;26.02;30.78
13029;BME280;6581;42.662;23.402;2022-09-14T12:06:52;95168.19;;;26.15;31.41
13029;BME280;6581;42.662;23.402;2022-09-14T12:09:47;95178.47;;;26.11;30.33
13029;BME280;6581;42.662;23.402;2022-09-14T12:12:33;95172.84;;;26.24;30.52
13029;BME280;6581;42.662;23.402;2022-09-14T12:15:16;95172.53;;;26.45;30.65
13029;BME280;6581;42.662;23.402;2022-09-14T12:17:44;95170.63;;;26.61;30.25
13029;BME280;6581;42.662;23.402;2022-09-14T12:20:44;95169.47;;;26.76;30.93
13029;BME280;6581;42.662;23.402;2022-09-14T12:23:25;95174.16;;;26.76;29.81
13029;BME280;6581;42.662;23.402;2022-09-14T12:26:10;95172.72;;;26.89;30.50
13029;BME280;6581;42.662;23.402;2022-09-14T12:28:42;95170.66;;;26.99;29.35
13029;BME280;6581;42.662;23.402;2022-09-14T12:34:24;95168.44;;;27.12;29.65
13029;BME280;6581;42.662;23.402;2022-09-14T12:37:04;95168.44;;;27.12;29.52
13029;BME280;6581;42.662;23.402;2022-09-14T12:40:11;95162.81;;;27.16;29.62
13029;BME280;6581;42.662;23.402;2022-09-14T12:42:38;95161.94;;;27.10;30.44
13029;BME280;6581;42.662;23.402;2022-09-14T12:48:07;95157.47;;;27.21;29.76
13029;BME280;6581;42.662;23.402;2022-09-14T12:50:37;95157.53;;;27.27;29.52
13029;BME280;6581;42.662;23.402;2022-09-14T12:53:32;95151.84;;;27.25;29.14
13029;BME280;6581;42.662;23.402;2022-09-14T12:56:03;95161.19;;;27.09;28.82
13029;BME280;6581;42.662;23.402;2022-09-14T12:58:42;95153.91;;;27.30;29.05
13029;BME280;6581;42.662;23.402;2022-09-14T13:01:22;95158.28;;;27.42;28.65
13029;BME280;6581;42.662;23.402;2022-09-14T13:03:53;95155.78;;;27.39;29.69
13029;BME280;6581;42.662;23.402;2022-09-14T13:06:23;95162.44;;;27.52;29.40
13029;BME280;6581;42.662;23.402;2022-09-14T13:08:55;95168.63;;;27.53;29.57
13029;BME280;6581;42.662;23.402;2022-09-14T13:11:29;95157.31;;;27.54;29.56
13029;BME280;6581;42.662;23.402;2022-09-14T13:13:57;95153.78;;;27.68;29.41
13029;BME280;6581;42.662;23.402;2022-09-14T13:16:33;95165.16;;;27.67;29.23
13029;BME280;6581;42.662;23.402;2022-09-14T13:19:04;95168.78;;;27.78;29.61
13029;BME280;6581;42.662;23.402;2022-09-14T13:21:33;95164.38;;;27.81;30.48
13029;BME280;6581;42.662;23.402;2022-09-14T13:24:00;95165.19;;;27.87;29.88
13029;BME280;6581;42.662;23.402;2022-09-14T13:26:28;95157.88;;;27.93;30.12
13029;BME280;6581;42.662;23.402;2022-09-14T13:28:59;95158.63;;;27.94;30.01
13029;BME280;6581;42.662;23.402;2022-09-14T13:31:30;95154.25;;;27.82;30.26
13029;BME280;6581;42.662;23.402;2022-09-14T13:33:59;95159.47;;;28.00;30.53